sensor_id;sensor_type;location;lat;lon;timestamp;P1;durP1;ratioP1;P2;durP2;ratioP2
51883;SDS011;37915;53.254;6.598;2024-03-23T00:55:34;11.50;;;3.65;;
51883;SDS011;37915;53.254;6.598;2024-03-23T00:58:00;20.08;;;4.35;;
51883;SDS011;37915;53.254;6.598;2024-03-23T01:00:26;19.98;;;4.35;;
51883;SDS011;37915;53.254;6.598;2024-03-23T01:02:52;16.65;;;3.95;;
51883;SDS011;37915;53.254;6.598;2024-03-23T01:05:18;17.15;;;3.80;;
51883;SDS011;37915;53.254;6.598;2024-03-23T01:07:44;14.60;;;3.47;;
51883;SDS011;37915;53.254;6.598;2024-03-23T01:10:11;18.45;;;3.78;;
51883;SDS011;37915;53.254;6.598;2024-03-23T01:12:37;14.05;;;3.65;;
51883;SDS011;37915;53.254;6.598;2024-03-23T01:15:03;12.82;;;3.90;;
51883;SDS011;37915;53.254;6.598;2024-03-23T01:17:29;12.95;;;4.00;;
51883;SDS011;37915;53.254;6.598;2024-03-23T01:19:55;20.77;;;4.20;;
51883;SDS011;37915;53.254;6.598;2024-03-23T01:22:21;17.08;;;3.97;;
51883;SDS011;37915;53.254;6.598;2024-03-23T01:24:47;15.57;;;3.50;;
51883;SDS011;37915;53.254;6.598;2024-03-23T01:27:13;15.55;;;3.65;;
51883;SDS011;37915;53.254;6.598;2024-03-23T01:29:39;23.55;;;4.68;;
51883;SDS011;37915;53.254;6.598;2024-03-23T01:32:06;15.95;;;3.97;;
51883;SDS011;37915;53.254;6.598;2024-03-23T01:34:32;16.75;;;3.85;;
51883;SDS011;37915;53.254;6.598;2024-03-23T01:36:58;12.93;;;3.75;;
51883;SDS011;37915;53.254;6.598;2024-03-23T01:39:24;16.58;;;3.80;;
51883;SDS011;37915;53.254;6.598;2024-03-23T01:41:50;18.60;;;3.83;;
51883;SDS011;37915;53.254;6.598;2024-03-23T01:44:17;13.90;;;3.33;;
51883;SDS011;37915;53.254;6.598;2024-03-23T01:46:43;16.13;;;4.07;;
51883;SDS011;37915;53.254;6.598;2024-03-23T01:49:09;15.68;;;3.83;;
51883;SDS011;37915;53.254;6.598;2024-03-23T01:51:36;18.08;;;3.70;;
51883;SDS011;37915;53.254;6.598;2024-03-23T01:54:02;22.15;;;4.97;;
51883;SDS011;37915;53.254;6.598;2024-03-23T01:56:29;16.00;;;4.22;;
51883;SDS011;37915;53.254;6.598;2024-03-23T01:58:56;13.05;;;3.60;;
51883;SDS011;37915;53.254;6.598;2024-03-23T02:01:22;15.27;;;3.72;;
51883;SDS011;37915;53.254;6.598;2024-03-23T02:03:48;14.18;;;3.17;;
51883;SDS011;37915;53.254;6.598;2024-03-23T02:06:14;20.27;;;3.85;;
51883;SDS011;37915;53.254;6.598;2024-03-23T02:08:40;20.17;;;4.13;;
51883;SDS011;37915;53.254;6.598;2024-03-23T02:11:06;18.23;;;4.68;;
51883;SDS011;37915;53.254;6.598;2024-03-23T02:13:33;13.05;;;4.15;;
51883;SDS011;37915;53.254;6.598;2024-03-23T02:15:59;14.30;;;3.78;;
51883;SDS011;37915;53.254;6.598;2024-03-23T02:18:25;19.13;;;4.15;;
51883;SDS011;37915;53.254;6.598;2024-03-23T02:20:51;15.57;;;4.38;;
51883;SDS011;37915;53.254;6.598;2024-03-23T02:23:17;17.73;;;4.03;;
51883;SDS011;37915;53.254;6.598;2024-03-23T02:25:44;20.15;;;3.65;;
51883;SDS011;37915;53.254;6.598;2024-03-23T02:28:10;14.80;;;3.17;;
51883;SDS011;37915;53.254;6.598;2024-03-23T02:30:36;17.50;;;3.88;;
51883;SDS011;37915;53.254;6.598;2024-03-23T02:33:03;11.35;;;3.05;;
51883;SDS011;37915;53.254;6.598;2024-03-23T02:35:29;10.20;;;3.00;;
51883;SDS011;37915;53.254;6.598;2024-03-23T02:37:55;12.25;;;2.85;;
51883;SDS011;37915;53.254;6.598;2024-03-23T02:40:25;14.45;;;2.97;;
51883;SDS011;37915;53.254;6.598;2024-03-23T02:42:51;13.95;;;3.80;;
51883;SDS011;37915;53.254;6.598;2024-03-23T02:45:18;10.68;;;2.70;;
51883;SDS011;37915;53.254;6.598;2024-03-23T02:47:44;13.18;;;3.13;;
51883;SDS011;37915;53.254;6.598;2024-03-23T02:50:10;12.43;;;2.80;;
51883;SDS011;37915;53.254;6.598;2024-03-23T02:52:36;14.60;;;3.03;;
51883;SDS011;37915;53.254;6.598;2024-03-23T02:55:03;16.02;;;3.75;;
51883;SDS011;37915;53.254;6.598;2024-03-23T02:57:30;14.20;;;2.88;;
51883;SDS011;37915;53.254;6.598;2024-03-23T02:59:56;17.33;;;3.13;;
51883;SDS011;37915;53.254;6.598;2024-03-23T03:02:22;10.77;;;2.88;;
51883;SDS011;37915;53.254;6.598;2024-03-23T03:04:48;15.43;;;2.92;;
51883;SDS011;37915;53.254;6.598;2024-03-23T03:07:14;16.23;;;2.90;;
51883;SDS011;37915;53.254;6.598;2024-03-23T03:09:40;9.70;;;2.70;;
51883;SDS011;37915;53.254;6.598;2024-03-23T03:12:06;12.13;;;3.38;;
51883;SDS011;37915;53.254;6.598;2024-03-23T03:14:33;8.07;;;2.20;;
51883;SDS011;37915;53.254;6.598;2024-03-23T03:16:59;16.85;;;3.03;;
51883;SDS011;37915;53.254;6.598;2024-03-23T03:19:25;12.75;;;4.00;;
51883;SDS011;37915;53.254;6.598;2024-03-23T03:21:51;12.27;;;2.50;;
51883;SDS011;37915;53.254;6.598;2024-03-23T03:24:18;9.63;;;2.25;;
51883;SDS011;37915;53.254;6.598;2024-03-23T03:26:44;12.32;;;2.90;;
51883;SDS011;37915;53.254;6.598;2024-03-23T03:29:10;11.23;;;2.38;;
51883;SDS011;37915;53.254;6.598;2024-03-23T03:31:37;19.05;;;2.60;;
51883;SDS011;37915;53.254;6.598;2024-03-23T03:34:03;12.10;;;3.47;;
51883;SDS011;37915;53.254;6.598;2024-03-23T03:36:29;15.05;;;3.90;;
51883;SDS011;37915;53.254;6.598;2024-03-23T03:38:55;13.45;;;2.47;;
51883;SDS011;37915;53.254;6.598;2024-03-23T03:41:21;20.48;;;3.35;;
51883;SDS011;37915;53.254;6.598;2024-03-23T03:43:47;12.93;;;2.63;;
51883;SDS011;37915;53.254;6.598;2024-03-23T03:46:13;7.32;;;2.25;;
51883;SDS011;37915;53.254;6.598;2024-03-23T03:48:39;10.05;;;2.28;;
51883;SDS011;37915;53.254;6.598;2024-03-23T03:51:05;13.07;;;2.08;;
51883;SDS011;37915;53.254;6.598;2024-03-23T03:53:31;9.98;;;2.35;;
51883;SDS011;37915;53.254;6.598;2024-03-23T03:56:01;8.88;;;2.60;;
51883;SDS011;37915;53.254;6.598;2024-03-23T03:58:27;10.48;;;2.30;;
51883;SDS011;37915;53.254;6.598;2024-03-23T04:00:53;9.20;;;2.55;;
51883;SDS011;37915;53.254;6.598;2024-03-23T04:03:20;8.73;;;2.58;;
51883;SDS011;37915;53.254;6.598;2024-03-23T04:05:52;18.90;;;2.97;;
51883;SDS011;37915;53.254;6.598;2024-03-23T04:08:19;10.98;;;2.92;;
51883;SDS011;37915;53.254;6.598;2024-03-23T04:10:45;12.77;;;3.28;;
51883;SDS011;37915;53.254;6.598;2024-03-23T04:13:12;9.57;;;3.47;;
51883;SDS011;37915;53.254;6.598;2024-03-23T04:15:38;11.98;;;2.70;;
51883;SDS011;37915;53.254;6.598;2024-03-23T04:18:04;10.98;;;3.35;;
51883;SDS011;37915;53.254;6.598;2024-03-23T04:20:30;13.38;;;2.60;;
51883;SDS011;37915;53.254;6.598;2024-03-23T04:22:57;15.88;;;2.47;;
51883;SDS011;37915;53.254;6.598;2024-03-23T04:25:23;14.60;;;3.05;;
51883;SDS011;37915;53.254;6.598;2024-03-23T04:27:49;9.50;;;2.35;;
51883;SDS011;37915;53.254;6.598;2024-03-23T04:30:16;10.40;;;2.22;;
51883;SDS011;37915;53.254;6.598;2024-03-23T04:32:42;9.88;;;2.17;;
51883;SDS011;37915;53.254;6.598;2024-03-23T04:35:08;11.10;;;2.72;;
51883;SDS011;37915;53.254;6.598;2024-03-23T04:37:35;16.65;;;2.83;;
51883;SDS011;37915;53.254;6.598;2024-03-23T04:40:02;13.32;;;2.40;;
51883;SDS011;37915;53.254;6.598;2024-03-23T04:42:28;11.90;;;2.55;;
51883;SDS011;37915;53.254;6.598;2024-03-23T04:44:54;11.25;;;2.95;;
51883;SDS011;37915;53.254;6.598;2024-03-23T04:47:20;10.77;;;2.53;;
51883;SDS011;37915;53.254;6.598;2024-03-23T04:49:46;12.82;;;2.30;;
51883;SDS011;37915;53.254;6.598;2024-03-23T04:52:13;14.88;;;3.28;;
51883;SDS011;37915;53.254;6.598;2024-03-23T04:54:39;16.25;;;2.60;;
51883;SDS011;37915;53.254;6.598;2024-03-23T04:57:08;10.57;;;2.42;;
51883;SDS011;37915;53.254;6.598;2024-03-23T04:59:34;13.73;;;2.28;;
51883;SDS011;37915;53.254;6.598;2024-03-23T05:02:00;14.18;;;2.13;;
51883;SDS011;37915;53.254;6.598;2024-03-23T05:04:27;11.48;;;2.13;;
51883;SDS011;37915;53.254;6.598;2024-03-23T05:06:54;9.48;;;1.80;;
51883;SDS011;37915;53.254;6.598;2024-03-23T05:09:20;11.52;;;2.35;;
51883;SDS011;37915;53.254;6.598;2024-03-23T05:11:46;10.35;;;1.88;;
51883;SDS011;37915;53.254;6.598;2024-03-23T05:14:15;17.15;;;3.33;;
51883;SDS011;37915;53.254;6.598;2024-03-23T05:16:41;11.85;;;2.88;;
51883;SDS011;37915;53.254;6.598;2024-03-23T05:19:07;7.63;;;1.80;;
51883;SDS011;37915;53.254;6.598;2024-03-23T05:21:33;9.93;;;2.75;;
51883;SDS011;37915;53.254;6.598;2024-03-23T05:23:59;15.75;;;2.97;;
51883;SDS011;37915;53.254;6.598;2024-03-23T05:26:26;10.90;;;2.83;;
51883;SDS011;37915;53.254;6.598;2024-03-23T05:28:52;13.25;;;2.90;;
51883;SDS011;37915;53.254;6.598;2024-03-23T05:31:25;10.18;;;2.10;;
51883;SDS011;37915;53.254;6.598;2024-03-23T05:33:51;17.40;;;2.53;;
51883;SDS011;37915;53.254;6.598;2024-03-23T05:36:17;7.20;;;1.90;;
51883;SDS011;37915;53.254;6.598;2024-03-23T05:38:43;13.27;;;2.15;;
51883;SDS011;37915;53.254;6.598;2024-03-23T05:41:09;17.80;;;3.40;;
51883;SDS011;37915;53.254;6.598;2024-03-23T05:43:36;12.52;;;2.60;;
51883;SDS011;37915;53.254;6.598;2024-03-23T05:46:02;15.50;;;2.63;;
51883;SDS011;37915;53.254;6.598;2024-03-23T05:48:30;18.90;;;2.72;;
51883;SDS011;37915;53.254;6.598;2024-03-23T05:50:56;10.85;;;2.47;;
51883;SDS011;37915;53.254;6.598;2024-03-23T05:53:22;17.13;;;2.80;;
51883;SDS011;37915;53.254;6.598;2024-03-23T05:55:49;9.60;;;2.05;;
51883;SDS011;37915;53.254;6.598;2024-03-23T05:58:16;11.57;;;2.17;;
51883;SDS011;37915;53.254;6.598;2024-03-23T06:00:42;13.95;;;2.22;;
51883;SDS011;37915;53.254;6.598;2024-03-23T06:03:09;7.85;;;2.03;;
51883;SDS011;37915;53.254;6.598;2024-03-23T06:05:35;14.85;;;2.22;;
51883;SDS011;37915;53.254;6.598;2024-03-23T06:08:01;13.32;;;2.65;;
51883;SDS011;37915;53.254;6.598;2024-03-23T06:10:27;12.32;;;1.88;;
51883;SDS011;37915;53.254;6.598;2024-03-23T06:12:54;12.27;;;2.40;;
51883;SDS011;37915;53.254;6.598;2024-03-23T06:15:20;9.32;;;2.08;;
51883;SDS011;37915;53.254;6.598;2024-03-23T06:17:47;12.70;;;1.83;;
51883;SDS011;37915;53.254;6.598;2024-03-23T06:20:13;15.05;;;2.33;;
51883;SDS011;37915;53.254;6.598;2024-03-23T06:22:40;7.75;;;2.33;;
51883;SDS011;37915;53.254;6.598;2024-03-23T06:25:06;13.15;;;1.90;;
51883;SDS011;37915;53.254;6.598;2024-03-23T06:27:32;8.07;;;1.63;;
51883;SDS011;37915;53.254;6.598;2024-03-23T06:29:59;7.93;;;2.38;;
51883;SDS011;37915;53.254;6.598;2024-03-23T06:32:25;9.35;;;1.92;;
51883;SDS011;37915;53.254;6.598;2024-03-23T06:34:51;11.07;;;2.08;;
51883;SDS011;37915;53.254;6.598;2024-03-23T06:37:17;9.75;;;2.10;;
51883;SDS011;37915;53.254;6.598;2024-03-23T06:39:45;13.88;;;2.03;;
51883;SDS011;37915;53.254;6.598;2024-03-23T06:42:12;6.53;;;2.20;;
51883;SDS011;37915;53.254;6.598;2024-03-23T06:44:38;5.05;;;1.23;;
51883;SDS011;37915;53.254;6.598;2024-03-23T06:47:05;9.57;;;1.60;;
51883;SDS011;37915;53.254;6.598;2024-03-23T06:49:31;6.63;;;1.65;;
51883;SDS011;37915;53.254;6.598;2024-03-23T06:51:57;7.63;;;1.60;;
51883;SDS011;37915;53.254;6.598;2024-03-23T06:54:24;9.68;;;2.38;;
51883;SDS011;37915;53.254;6.598;2024-03-23T06:56:50;5.47;;;1.20;;
51883;SDS011;37915;53.254;6.598;2024-03-23T06:59:16;6.68;;;1.60;;
51883;SDS011;37915;53.254;6.598;2024-03-23T07:01:42;5.25;;;1.48;;
51883;SDS011;37915;53.254;6.598;2024-03-23T07:04:08;6.53;;;1.60;;
51883;SDS011;37915;53.254;6.598;2024-03-23T07:06:35;10.77;;;2.70;;
51883;SDS011;37915;53.254;6.598;2024-03-23T07:09:07;8.40;;;2.10;;
51883;SDS011;37915;53.254;6.598;2024-03-23T07:11:33;8.00;;;1.45;;
51883;SDS011;37915;53.254;6.598;2024-03-23T07:14:00;7.03;;;1.50;;
51883;SDS011;37915;53.254;6.598;2024-03-23T07:16:29;6.53;;;1.63;;
51883;SDS011;37915;53.254;6.598;2024-03-23T07:18:55;11.95;;;2.45;;
51883;SDS011;37915;53.254;6.598;2024-03-23T07:21:21;6.72;;;1.58;;
51883;SDS011;37915;53.254;6.598;2024-03-23T07:23:47;6.15;;;1.80;;
51883;SDS011;37915;53.254;6.598;2024-03-23T07:26:13;5.68;;;1.40;;
51883;SDS011;37915;53.254;6.598;2024-03-23T07:28:40;6.68;;;1.52;;
51883;SDS011;37915;53.254;6.598;2024-03-23T07:31:09;7.50;;;1.58;;
51883;SDS011;37915;53.254;6.598;2024-03-23T07:33:36;7.70;;;1.58;;
51883;SDS011;37915;53.254;6.598;2024-03-23T07:36:03;14.23;;;1.90;;
51883;SDS011;37915;53.254;6.598;2024-03-23T07:38:30;7.68;;;1.50;;
51883;SDS011;37915;53.254;6.598;2024-03-23T07:41:06;8.77;;;1.90;;
51883;SDS011;37915;53.254;6.598;2024-03-23T07:43:32;8.50;;;2.45;;
51883;SDS011;37915;53.254;6.598;2024-03-23T07:45:59;6.85;;;2.03;;
51883;SDS011;37915;53.254;6.598;2024-03-23T07:48:26;5.28;;;1.73;;
51883;SDS011;37915;53.254;6.598;2024-03-23T07:51:06;4.10;;;1.27;;
51883;SDS011;37915;53.254;6.598;2024-03-23T07:53:32;4.30;;;1.50;;
51883;SDS011;37915;53.254;6.598;2024-03-23T07:58:25;4.38;;;1.20;;
51883;SDS011;37915;53.254;6.598;2024-03-23T08:00:52;7.25;;;2.20;;
51883;SDS011;37915;53.254;6.598;2024-03-23T08:03:18;5.22;;;1.48;;
51883;SDS011;37915;53.254;6.598;2024-03-23T08:05:44;7.70;;;1.30;;
51883;SDS011;37915;53.254;6.598;2024-03-23T08:08:11;7.65;;;1.40;;
51883;SDS011;37915;53.254;6.598;2024-03-23T08:10:47;4.55;;;1.35;;
51883;SDS011;37915;53.254;6.598;2024-03-23T08:13:13;5.03;;;1.65;;
51883;SDS011;37915;53.254;6.598;2024-03-23T08:15:39;5.68;;;1.25;;
51883;SDS011;37915;53.254;6.598;2024-03-23T08:18:05;7.15;;;1.75;;
51883;SDS011;37915;53.254;6.598;2024-03-23T08:20:31;7.40;;;1.60;;
51883;SDS011;37915;53.254;6.598;2024-03-23T08:22:57;2.60;;;1.05;;
51883;SDS011;37915;53.254;6.598;2024-03-23T08:25:23;5.00;;;1.20;;
51883;SDS011;37915;53.254;6.598;2024-03-23T08:27:49;4.63;;;1.15;;
51883;SDS011;37915;53.254;6.598;2024-03-23T08:30:16;10.30;;;1.95;;
51883;SDS011;37915;53.254;6.598;2024-03-23T08:32:42;6.65;;;1.60;;
51883;SDS011;37915;53.254;6.598;2024-03-23T08:35:11;7.72;;;1.40;;
51883;SDS011;37915;53.254;6.598;2024-03-23T08:37:37;5.72;;;1.80;;
51883;SDS011;37915;53.254;6.598;2024-03-23T08:40:03;7.65;;;1.58;;
51883;SDS011;37915;53.254;6.598;2024-03-23T08:42:30;5.85;;;2.10;;
51883;SDS011;37915;53.254;6.598;2024-03-23T08:44:56;7.20;;;2.25;;
51883;SDS011;37915;53.254;6.598;2024-03-23T08:47:22;11.93;;;2.60;;
51883;SDS011;37915;53.254;6.598;2024-03-23T08:49:48;10.15;;;2.08;;
51883;SDS011;37915;53.254;6.598;2024-03-23T08:52:14;10.70;;;1.90;;
51883;SDS011;37915;53.254;6.598;2024-03-23T08:54:40;7.40;;;1.65;;
51883;SDS011;37915;53.254;6.598;2024-03-23T08:57:06;10.80;;;1.65;;
51883;SDS011;37915;53.254;6.598;2024-03-23T08:59:33;6.65;;;1.80;;
51883;SDS011;37915;53.254;6.598;2024-03-23T09:01:59;7.88;;;1.77;;
51883;SDS011;37915;53.254;6.598;2024-03-23T09:04:25;6.93;;;1.83;;
51883;SDS011;37915;53.254;6.598;2024-03-23T09:06:52;8.93;;;2.08;;
51883;SDS011;37915;53.254;6.598;2024-03-23T09:09:18;11.35;;;2.33;;
51883;SDS011;37915;53.254;6.598;2024-03-23T09:11:45;6.60;;;2.65;;
51883;SDS011;37915;53.254;6.598;2024-03-23T09:14:11;6.90;;;1.90;;
51883;SDS011;37915;53.254;6.598;2024-03-23T09:16:37;8.00;;;2.05;;
51883;SDS011;37915;53.254;6.598;2024-03-23T09:19:03;7.18;;;1.75;;
51883;SDS011;37915;53.254;6.598;2024-03-23T09:21:29;4.78;;;1.80;;
51883;SDS011;37915;53.254;6.598;2024-03-23T09:23:55;6.57;;;1.73;;
51883;SDS011;37915;53.254;6.598;2024-03-23T09:26:21;7.78;;;2.00;;
51883;SDS011;37915;53.254;6.598;2024-03-23T09:28:50;6.88;;;1.48;;
51883;SDS011;37915;53.254;6.598;2024-03-23T09:31:16;7.80;;;1.98;;
51883;SDS011;37915;53.254;6.598;2024-03-23T09:33:43;7.93;;;2.15;;
51883;SDS011;37915;53.254;6.598;2024-03-23T09:36:09;8.52;;;1.85;;
51883;SDS011;37915;53.254;6.598;2024-03-23T09:38:35;4.93;;;1.42;;
51883;SDS011;37915;53.254;6.598;2024-03-23T09:41:06;9.35;;;2.15;;
51883;SDS011;37915;53.254;6.598;2024-03-23T09:43:32;7.32;;;1.50;;
51883;SDS011;37915;53.254;6.598;2024-03-23T09:45:58;8.98;;;2.28;;
51883;SDS011;37915;53.254;6.598;2024-03-23T09:48:24;8.00;;;1.80;;
51883;SDS011;37915;53.254;6.598;2024-03-23T09:50:51;15.15;;;2.75;;
51883;SDS011;37915;53.254;6.598;2024-03-23T09:53:17;8.25;;;2.00;;
51883;SDS011;37915;53.254;6.598;2024-03-23T09:55:44;6.10;;;1.40;;
51883;SDS011;37915;53.254;6.598;2024-03-23T09:58:14;6.47;;;1.48;;
51883;SDS011;37915;53.254;6.598;2024-03-23T10:00:40;4.40;;;1.58;;
51883;SDS011;37915;53.254;6.598;2024-03-23T10:03:06;6.03;;;1.27;;
51883;SDS011;37915;53.254;6.598;2024-03-23T10:05:33;4.57;;;1.20;;
51883;SDS011;37915;53.254;6.598;2024-03-23T10:08:00;5.25;;;0.93;;
51883;SDS011;37915;53.254;6.598;2024-03-23T10:10:26;4.55;;;1.08;;
51883;SDS011;37915;53.254;6.598;2024-03-23T10:12:52;3.80;;;0.90;;
51883;SDS011;37915;53.254;6.598;2024-03-23T10:15:22;4.90;;;1.05;;
51883;SDS011;37915;53.254;6.598;2024-03-23T10:17:49;2.60;;;0.80;;
51883;SDS011;37915;53.254;6.598;2024-03-23T10:20:19;6.18;;;1.55;;
51883;SDS011;37915;53.254;6.598;2024-03-23T10:22:48;5.20;;;0.98;;
51883;SDS011;37915;53.254;6.598;2024-03-23T10:25:15;4.47;;;1.15;;
51883;SDS011;37915;53.254;6.598;2024-03-23T10:27:41;7.53;;;1.42;;
51883;SDS011;37915;53.254;6.598;2024-03-23T10:30:12;7.80;;;1.38;;
51883;SDS011;37915;53.254;6.598;2024-03-23T10:32:39;9.55;;;1.50;;
51883;SDS011;37915;53.254;6.598;2024-03-23T10:35:18;6.65;;;1.83;;
51883;SDS011;37915;53.254;6.598;2024-03-23T10:37:47;7.35;;;2.13;;
51883;SDS011;37915;53.254;6.598;2024-03-23T10:40:14;7.30;;;1.70;;
51883;SDS011;37915;53.254;6.598;2024-03-23T10:42:41;8.45;;;1.77;;
51883;SDS011;37915;53.254;6.598;2024-03-23T10:45:08;5.03;;;1.55;;
51883;SDS011;37915;53.254;6.598;2024-03-23T10:47:34;7.28;;;1.70;;
51883;SDS011;37915;53.254;6.598;2024-03-23T10:50:01;6.00;;;1.63;;
51883;SDS011;37915;53.254;6.598;2024-03-23T10:52:28;9.85;;;1.95;;
51883;SDS011;37915;53.254;6.598;2024-03-23T10:54:55;4.55;;;1.70;;
51883;SDS011;37915;53.254;6.598;2024-03-23T10:57:25;8.23;;;1.52;;
51883;SDS011;37915;53.254;6.598;2024-03-23T10:59:52;6.53;;;1.50;;
51883;SDS011;37915;53.254;6.598;2024-03-23T11:02:19;6.00;;;1.20;;
51883;SDS011;37915;53.254;6.598;2024-03-23T11:04:46;5.68;;;1.70;;
51883;SDS011;37915;53.254;6.598;2024-03-23T11:09:51;4.82;;;1.08;;
51883;SDS011;37915;53.254;6.598;2024-03-23T11:17:22;7.03;;;1.20;;
51883;SDS011;37915;53.254;6.598;2024-03-23T11:19:55;7.82;;;1.20;;
51883;SDS011;37915;53.254;6.598;2024-03-23T11:25:16;5.78;;;1.42;;
51883;SDS011;37915;53.254;6.598;2024-03-23T11:27:45;9.35;;;1.60;;
51883;SDS011;37915;53.254;6.598;2024-03-23T11:30:14;6.07;;;1.10;;
51883;SDS011;37915;53.254;6.598;2024-03-23T11:32:41;6.28;;;1.50;;
51883;SDS011;37915;53.254;6.598;2024-03-23T11:35:08;6.45;;;1.13;;
51883;SDS011;37915;53.254;6.598;2024-03-23T11:37:35;4.47;;;1.25;;
51883;SDS011;37915;53.254;6.598;2024-03-23T11:40:16;8.02;;;1.50;;
51883;SDS011;37915;53.254;6.598;2024-03-23T11:42:42;6.00;;;1.33;;
51883;SDS011;37915;53.254;6.598;2024-03-23T11:45:08;4.45;;;1.33;;
51883;SDS011;37915;53.254;6.598;2024-03-23T11:47:35;5.10;;;1.10;;
51883;SDS011;37915;53.254;6.598;2024-03-23T11:50:01;7.00;;;1.60;;
51883;SDS011;37915;53.254;6.598;2024-03-23T11:52:27;6.72;;;1.45;;
51883;SDS011;37915;53.254;6.598;2024-03-23T11:55:02;8.32;;;2.45;;
51883;SDS011;37915;53.254;6.598;2024-03-23T11:57:28;5.80;;;1.50;;
51883;SDS011;37915;53.254;6.598;2024-03-23T11:59:55;7.03;;;1.48;;
51883;SDS011;37915;53.254;6.598;2024-03-23T12:02:21;6.05;;;1.98;;
51883;SDS011;37915;53.254;6.598;2024-03-23T12:04:47;9.07;;;1.90;;
51883;SDS011;37915;53.254;6.598;2024-03-23T12:07:20;7.88;;;2.33;;
51883;SDS011;37915;53.254;6.598;2024-03-23T12:09:47;5.93;;;1.58;;
51883;SDS011;37915;53.254;6.598;2024-03-23T12:12:14;7.90;;;2.30;;
51883;SDS011;37915;53.254;6.598;2024-03-23T12:14:43;5.97;;;1.48;;
51883;SDS011;37915;53.254;6.598;2024-03-23T12:19:36;4.13;;;1.17;;
51883;SDS011;37915;53.254;6.598;2024-03-23T12:22:02;8.23;;;1.63;;
51883;SDS011;37915;53.254;6.598;2024-03-23T12:24:29;5.65;;;1.58;;
51883;SDS011;37915;53.254;6.598;2024-03-23T12:26:59;3.90;;;1.23;;
51883;SDS011;37915;53.254;6.598;2024-03-23T12:29:26;3.83;;;1.35;;
51883;SDS011;37915;53.254;6.598;2024-03-23T12:31:52;6.13;;;1.58;;
51883;SDS011;37915;53.254;6.598;2024-03-23T12:34:18;5.50;;;1.15;;
51883;SDS011;37915;53.254;6.598;2024-03-23T12:36:44;5.22;;;1.02;;
51883;SDS011;37915;53.254;6.598;2024-03-23T12:39:11;6.43;;;1.42;;
51883;SDS011;37915;53.254;6.598;2024-03-23T12:41:37;6.00;;;1.40;;
51883;SDS011;37915;53.254;6.598;2024-03-23T12:44:03;3.05;;;1.10;;
51883;SDS011;37915;53.254;6.598;2024-03-23T12:46:29;5.38;;;1.20;;
51883;SDS011;37915;53.254;6.598;2024-03-23T12:48:56;6.32;;;1.70;;
51883;SDS011;37915;53.254;6.598;2024-03-23T12:51:23;7.25;;;1.33;;
51883;SDS011;37915;53.254;6.598;2024-03-23T12:53:49;7.68;;;1.42;;
51883;SDS011;37915;53.254;6.598;2024-03-23T12:56:15;9.82;;;1.65;;
51883;SDS011;37915;53.254;6.598;2024-03-23T12:58:42;5.47;;;1.33;;
51883;SDS011;37915;53.254;6.598;2024-03-23T13:01:08;7.07;;;1.23;;
51883;SDS011;37915;53.254;6.598;2024-03-23T13:03:34;5.13;;;1.20;;
51883;SDS011;37915;53.254;6.598;2024-03-23T13:06:00;5.68;;;1.50;;
51883;SDS011;37915;53.254;6.598;2024-03-23T13:08:26;6.72;;;1.60;;
51883;SDS011;37915;53.254;6.598;2024-03-23T13:10:52;8.57;;;1.63;;
51883;SDS011;37915;53.254;6.598;2024-03-23T13:13:20;6.43;;;1.38;;
51883;SDS011;37915;53.254;6.598;2024-03-23T13:15:52;6.20;;;1.90;;
51883;SDS011;37915;53.254;6.598;2024-03-23T13:18:18;7.80;;;1.60;;
51883;SDS011;37915;53.254;6.598;2024-03-23T13:20:44;7.28;;;1.33;;
51883;SDS011;37915;53.254;6.598;2024-03-23T13:23:10;10.80;;;1.73;;
51883;SDS011;37915;53.254;6.598;2024-03-23T13:25:36;5.78;;;1.50;;
51883;SDS011;37915;53.254;6.598;2024-03-23T13:28:03;7.85;;;2.17;;
51883;SDS011;37915;53.254;6.598;2024-03-23T13:30:29;8.63;;;1.83;;
51883;SDS011;37915;53.254;6.598;2024-03-23T13:32:55;8.23;;;1.67;;
51883;SDS011;37915;53.254;6.598;2024-03-23T13:35:21;8.75;;;2.00;;
51883;SDS011;37915;53.254;6.598;2024-03-23T13:37:48;7.25;;;2.17;;
51883;SDS011;37915;53.254;6.598;2024-03-23T13:40:14;7.18;;;1.90;;
51883;SDS011;37915;53.254;6.598;2024-03-23T13:42:40;7.55;;;1.70;;
51883;SDS011;37915;53.254;6.598;2024-03-23T13:45:06;5.85;;;1.20;;
51883;SDS011;37915;53.254;6.598;2024-03-23T13:47:32;4.78;;;1.33;;
51883;SDS011;37915;53.254;6.598;2024-03-23T13:49:58;5.78;;;1.10;;
51883;SDS011;37915;53.254;6.598;2024-03-23T13:52:24;4.57;;;1.30;;
51883;SDS011;37915;53.254;6.598;2024-03-23T13:54:51;3.92;;;1.10;;
51883;SDS011;37915;53.254;6.598;2024-03-23T13:57:18;6.00;;;1.40;;
51883;SDS011;37915;53.254;6.598;2024-03-23T13:59:46;11.40;;;2.50;;
51883;SDS011;37915;53.254;6.598;2024-03-23T14:02:14;7.65;;;1.65;;
51883;SDS011;37915;53.254;6.598;2024-03-23T14:04:40;8.10;;;1.70;;
51883;SDS011;37915;53.254;6.598;2024-03-23T14:07:06;8.68;;;1.42;;
51883;SDS011;37915;53.254;6.598;2024-03-23T14:09:34;4.75;;;1.10;;
51883;SDS011;37915;53.254;6.598;2024-03-23T14:12:00;4.65;;;1.08;;
51883;SDS011;37915;53.254;6.598;2024-03-23T14:14:26;4.75;;;1.00;;
51883;SDS011;37915;53.254;6.598;2024-03-23T14:16:52;4.40;;;1.35;;
51883;SDS011;37915;53.254;6.598;2024-03-23T14:19:18;8.45;;;1.88;;
51883;SDS011;37915;53.254;6.598;2024-03-23T14:21:44;9.52;;;1.15;;
51883;SDS011;37915;53.254;6.598;2024-03-23T14:24:11;3.92;;;1.42;;
51883;SDS011;37915;53.254;6.598;2024-03-23T14:26:37;6.47;;;1.48;;
51883;SDS011;37915;53.254;6.598;2024-03-23T14:29:04;4.13;;;1.30;;
51883;SDS011;37915;53.254;6.598;2024-03-23T14:31:30;3.55;;;0.80;;
51883;SDS011;37915;53.254;6.598;2024-03-23T14:33:56;6.43;;;1.40;;
51883;SDS011;37915;53.254;6.598;2024-03-23T14:36:22;10.88;;;3.00;;
51883;SDS011;37915;53.254;6.598;2024-03-23T14:38:49;8.88;;;2.22;;
51883;SDS011;37915;53.254;6.598;2024-03-23T14:41:17;7.82;;;1.33;;
51883;SDS011;37915;53.254;6.598;2024-03-23T14:43:43;8.38;;;1.70;;
51883;SDS011;37915;53.254;6.598;2024-03-23T14:46:13;7.40;;;1.73;;
51883;SDS011;37915;53.254;6.598;2024-03-23T14:48:39;6.65;;;1.63;;
51883;SDS011;37915;53.254;6.598;2024-03-23T14:51:06;6.65;;;1.48;;
51883;SDS011;37915;53.254;6.598;2024-03-23T14:53:33;5.65;;;1.50;;
51883;SDS011;37915;53.254;6.598;2024-03-23T14:56:00;8.05;;;2.10;;
51883;SDS011;37915;53.254;6.598;2024-03-23T14:58:27;7.82;;;1.50;;
51883;SDS011;37915;53.254;6.598;2024-03-23T15:00:57;10.10;;;2.20;;
51883;SDS011;37915;53.254;6.598;2024-03-23T15:03:25;8.27;;;1.63;;
51883;SDS011;37915;53.254;6.598;2024-03-23T15:05:55;5.30;;;1.40;;
51883;SDS011;37915;53.254;6.598;2024-03-23T15:08:21;6.72;;;2.22;;
51883;SDS011;37915;53.254;6.598;2024-03-23T15:10:47;7.38;;;1.98;;
51883;SDS011;37915;53.254;6.598;2024-03-23T15:13:13;9.57;;;1.45;;
51883;SDS011;37915;53.254;6.598;2024-03-23T15:15:40;8.93;;;2.67;;
